You are listening to:
SABE Gnd/Twr/App - Buenos Aires, Argentina

SABE 192000Z 26008KT 230V320 CAVOK 17/07 Q1016 NOSIG

If stream does not start automatically press the play button